Time;durP1;ratioP1;P1;durP2;ratioP2;P2;SDS_P1;SDS_P2;PMS_P1;PMS_P2;Temp;Humidity;BMP_temperature;BMP_pressure;BME280_temperature;BME280_humidity;BME280_pressure;Samples;Min_cycle;Max_cycle;Signal;HPM_P1;HPM_P2
2023/08/28 00:01:13;;;;;;;4.10;2.60;;;;;;;15.03;100.00;101100.88;5273903;28;20133;-70
2023/08/28 00:03:45;;;;;;;7.60;2.97;;;;;;;15.02;100.00;101095.78;5276483;28;21112;-71
2023/08/28 00:06:17;;;;;;;4.65;2.78;;;;;;;14.96;100.00;101086.63;5278411;28;20766;-71
2023/08/28 00:08:48;;;;;;;3.90;2.50;;;;;;;14.99;100.00;101090.78;5277693;28;20039;-69
2023/08/28 00:11:19;;;;;;;4.10;2.75;;;;;;;14.96;100.00;101091.91;5275845;28;20426;-70
2023/08/28 00:13:50;;;;;;;3.92;2.67;;;;;;;14.92;100.00;101097.66;5279885;28;21054;-70
2023/08/28 00:16:22;;;;;;;4.00;2.53;;;;;;;14.89;100.00;101088.25;5259599;28;20040;-70
2023/08/28 00:18:53;;;;;;;4.03;2.55;;;;;;;14.91;100.00;101091.56;5281584;28;20044;-70
2023/08/28 00:21:24;;;;;;;3.67;2.72;;;;;;;14.94;100.00;101087.78;5282076;28;20028;-70
2023/08/28 00:23:56;;;;;;;5.82;2.72;;;;;;;14.87;100.00;101082.28;5281991;28;20034;-70
2023/08/28 00:26:27;;;;;;;3.58;2.80;;;;;;;14.88;100.00;101083.94;5281007;28;20016;-69
2023/08/28 00:28:59;;;;;;;4.20;3.15;;;;;;;14.83;100.00;101071.22;5282099;28;20052;-69
2023/08/28 00:31:30;;;;;;;3.97;2.97;;;;;;;14.82;100.00;101079.28;5280875;28;20528;-71
2023/08/28 00:34:01;;;;;;;3.63;2.83;;;;;;;14.82;100.00;101084.56;5284872;28;20051;-70
2023/08/28 00:36:32;;;;;;;4.15;3.10;;;;;;;14.80;100.00;101082.06;5285510;28;20031;-70
2023/08/28 00:39:04;;;;;;;3.42;2.90;;;;;;;14.58;100.00;101072.81;5280116;28;20029;-69
2023/08/28 00:41:36;;;;;;;3.53;2.90;;;;;;;14.61;100.00;101066.41;5284018;28;20063;-70
2023/08/28 00:44:08;;;;;;;3.47;2.60;;;;;;;14.59;100.00;101071.84;5278794;28;20028;-70
2023/08/28 00:46:39;;;;;;;3.72;2.70;;;;;;;14.53;100.00;101068.97;5280097;28;20078;-70
2023/08/28 00:49:11;;;;;;;4.65;2.92;;;;;;;14.48;100.00;101069.38;5279397;28;20048;-70
2023/08/28 00:51:43;;;;;;;3.20;2.87;;;;;;;14.47;100.00;101061.63;5280032;28;20129;-71
2023/08/28 00:54:15;;;;;;;5.35;3.05;;;;;;;14.47;100.00;101074.78;5279608;28;20025;-71
2023/08/28 00:56:47;;;;;;;4.45;3.08;;;;;;;14.35;100.00;101072.38;5279725;28;20042;-70
2023/08/28 00:59:19;;;;;;;5.75;3.00;;;;;;;14.34;100.00;101073.34;5282226;28;20548;-71
2023/08/28 01:01:50;;;;;;;5.57;2.97;;;;;;;14.33;100.00;101079.63;5280096;28;20024;-71
2023/08/28 01:04:23;;;;;;;6.07;3.60;;;;;;;14.28;100.00;101076.59;5284501;28;20199;-70
2023/08/28 01:07:18;;;;;;;4.30;3.10;;;;;;;14.55;100.00;101069.66;5286540;28;20547;-70
2023/08/28 01:10:02;;;;;;;4.57;2.95;;;;;;;14.25;100.00;101065.53;5280018;28;20123;-69
2023/08/28 01:12:48;;;;;;;4.38;3.25;;;;;;;14.36;100.00;101067.97;5280296;28;20479;-70
2023/08/28 01:15:21;;;;;;;3.33;3.03;;;;;;;14.26;100.00;101075.09;5278182;28;20074;-69
2023/08/28 01:18:00;;;;;;;4.40;3.33;;;;;;;14.31;100.00;101076.28;5278260;28;20089;-71
2023/08/28 01:20:35;;;;;;;5.50;3.70;;;;;;;14.22;100.00;101074.56;5279555;28;20032;-70
2023/08/28 01:23:33;;;;;;;4.63;3.72;;;;;;;14.45;100.00;101068.84;5279302;28;20133;-71
2023/08/28 01:26:04;;;;;;;6.72;3.80;;;;;;;14.20;100.00;101067.75;5278099;28;20028;-71
2023/08/28 01:28:35;;;;;;;6.28;3.47;;;;;;;14.18;100.00;101061.81;5284005;28;20033;-69
2023/08/28 01:31:07;;;;;;;5.80;3.72;;;;;;;14.17;100.00;101058.38;5279009;28;20089;-69
2023/08/28 01:33:39;;;;;;;6.75;3.83;;;;;;;14.16;100.00;101061.13;5281069;28;20111;-70
2023/08/28 01:36:25;;;;;;;7.57;4.60;;;;;;;14.42;100.00;101061.25;5281143;28;20473;-70
2023/08/28 01:38:59;;;;;;;5.05;4.07;;;;;;;14.15;100.00;101055.03;5281740;28;20067;-70
2023/08/28 01:41:32;;;;;;;5.50;3.88;;;;;;;14.11;100.00;101059.78;5277065;28;20042;-70
2023/08/28 01:44:07;;;;;;;7.05;3.95;;;;;;;14.11;100.00;101051.03;5282656;28;20115;-70
2023/08/28 01:46:38;;;;;;;4.72;4.13;;;;;;;14.00;100.00;101048.63;5279009;28;20035;-71
2023/08/28 01:49:10;;;;;;;6.35;4.13;;;;;;;13.97;100.00;101049.72;5283082;28;20041;-70
2023/08/28 01:51:42;;;;;;;5.20;3.95;;;;;;;13.98;100.00;101047.91;5279488;28;20611;-70
2023/08/28 01:54:13;;;;;;;4.35;3.83;;;;;;;13.97;100.00;101048.91;5278764;28;20068;-70
2023/08/28 01:56:45;;;;;;;5.65;3.95;;;;;;;13.92;100.00;101044.09;5281758;28;20494;-70
2023/08/28 01:59:16;;;;;;;5.22;4.18;;;;;;;13.87;100.00;101047.16;5279795;28;20067;-70
2023/08/28 02:01:47;;;;;;;5.35;4.35;;;;;;;13.84;100.00;101044.00;5275606;28;20031;-70
2023/08/28 02:04:18;;;;;;;5.07;4.57;;;;;;;13.82;100.00;101041.47;5281994;28;20113;-69
2023/08/28 02:06:50;;;;;;;4.75;4.25;;;;;;;13.79;100.00;101039.16;5280463;28;20032;-70
2023/08/28 02:09:21;;;;;;;4.60;3.83;;;;;;;13.80;100.00;101030.28;5282233;28;20028;-70
2023/08/28 02:11:52;;;;;;;5.55;4.35;;;;;;;13.80;100.00;101024.19;5282238;28;20039;-70
2023/08/28 02:14:24;;;;;;;6.32;4.38;;;;;;;13.80;100.00;101025.03;5277083;28;20404;-70
2023/08/28 02:16:55;;;;;;;4.57;4.15;;;;;;;13.78;100.00;101023.50;5276454;28;20036;-70
2023/08/28 02:19:26;;;;;;;6.55;4.13;;;;;;;13.77;100.00;101024.47;5282395;28;20523;-70
2023/08/28 02:21:57;;;;;;;7.15;4.57;;;;;;;13.74;100.00;101030.03;5279905;28;20031;-70
2023/08/28 02:24:29;;;;;;;8.02;5.20;;;;;;;13.77;100.00;101033.22;5282002;28;20059;-70
2023/08/28 02:27:00;;;;;;;6.75;4.82;;;;;;;13.77;100.00;101035.84;5279788;28;20111;-70
2023/08/28 02:29:32;;;;;;;6.85;4.63;;;;;;;13.75;100.00;101039.59;5282230;28;20032;-70
2023/08/28 02:32:03;;;;;;;5.53;4.90;;;;;;;13.74;100.00;101041.38;5278408;28;20488;-69
2023/08/28 02:34:35;;;;;;;8.73;5.60;;;;;;;13.74;100.00;101040.56;5281957;28;20546;-70
2023/08/28 02:37:06;;;;;;;7.20;5.10;;;;;;;13.75;100.00;101035.16;5280794;28;20035;-71
2023/08/28 02:39:38;;;;;;;5.70;5.07;;;;;;;13.70;100.00;101037.38;5282814;28;20040;-70
2023/08/28 02:42:09;;;;;;;7.30;4.97;;;;;;;13.71;100.00;101025.06;5281373;28;20032;-70
2023/08/28 02:44:40;;;;;;;6.35;4.75;;;;;;;13.69;100.00;101032.28;5278534;28;20212;-70
2023/08/28 02:47:11;;;;;;;5.72;5.05;;;;;;;13.68;100.00;101030.63;5281043;28;20390;-69
2023/08/28 02:49:43;;;;;;;6.75;5.32;;;;;;;13.66;100.00;101038.66;5281099;28;20468;-70
2023/08/28 02:52:14;;;;;;;6.15;5.05;;;;;;;13.62;100.00;101042.56;5279579;28;20135;-70
2023/08/28 02:54:45;;;;;;;5.57;4.60;;;;;;;13.63;100.00;101046.84;5276006;28;20040;-70
2023/08/28 02:57:17;;;;;;;7.07;4.80;;;;;;;13.63;100.00;101049.47;5281614;28;20390;-70
2023/08/28 02:59:48;;;;;;;6.55;5.10;;;;;;;13.69;100.00;101043.63;5280476;28;20505;-70
2023/08/28 03:02:19;;;;;;;7.35;5.50;;;;;;;13.71;100.00;101051.38;5282620;28;20315;-71
2023/08/28 03:04:50;;;;;;;5.20;4.70;;;;;;;13.70;100.00;101055.00;5274765;28;20024;-70
2023/08/28 03:07:22;;;;;;;5.90;5.40;;;;;;;13.70;100.00;101047.09;5281795;28;20032;-69
2023/08/28 03:09:53;;;;;;;5.90;5.05;;;;;;;13.65;100.00;101060.69;5278070;28;20055;-70
2023/08/28 03:12:25;;;;;;;8.05;5.20;;;;;;;13.63;100.00;101066.09;5276384;28;20027;-70
2023/08/28 03:14:56;;;;;;;7.47;5.35;;;;;;;13.66;100.00;101059.72;5277852;28;20068;-70
2023/08/28 03:17:27;;;;;;;6.20;5.60;;;;;;;13.68;100.00;101059.59;5280365;28;20028;-70
2023/08/28 03:19:59;;;;;;;7.93;5.28;;;;;;;13.65;100.00;101065.97;5275608;28;20035;-70
2023/08/28 03:22:30;;;;;;;6.60;5.28;;;;;;;13.67;100.00;101065.81;5278084;28;20032;-70
2023/08/28 03:25:01;;;;;;;6.00;5.40;;;;;;;13.73;100.00;101059.97;5278537;28;20393;-70
2023/08/28 03:27:33;;;;;;;7.70;6.38;;;;;;;13.69;100.00;101059.44;5282148;28;20480;-70
2023/08/28 03:30:06;;;;;;;7.20;6.05;;;;;;;13.69;100.00;101061.25;5275721;28;20023;-70
2023/08/28 03:32:38;;;;;;;7.63;6.00;;;;;;;13.73;100.00;101068.69;5260076;28;20028;-70
2023/08/28 03:35:09;;;;;;;7.80;5.80;;;;;;;13.74;100.00;101066.91;5281645;28;20061;-71
2023/08/28 03:37:41;;;;;;;6.85;6.15;;;;;;;13.76;100.00;101076.31;5277695;28;20028;-70
2023/08/28 03:40:12;;;;;;;7.13;6.43;;;;;;;13.83;100.00;101072.13;5280351;28;20023;-70
2023/08/28 03:42:43;;;;;;;7.55;6.18;;;;;;;13.78;100.00;101084.06;5280310;28;20021;-70
2023/08/28 03:45:14;;;;;;;7.68;6.32;;;;;;;13.72;100.00;101074.13;5275381;28;20031;-70
2023/08/28 03:47:46;;;;;;;7.05;6.20;;;;;;;13.72;100.00;101080.22;5279159;28;20078;-69
2023/08/28 03:50:17;;;;;;;7.85;6.35;;;;;;;13.73;100.00;101089.78;5281882;28;20048;-71
2023/08/28 03:52:48;;;;;;;7.63;6.80;;;;;;;13.76;100.00;101086.84;5282860;28;20150;-70
2023/08/28 03:55:19;;;;;;;7.72;6.13;;;;;;;13.78;100.00;101084.88;5283081;28;20028;-70
2023/08/28 03:57:51;;;;;;;9.40;6.90;;;;;;;13.77;100.00;101090.31;5281840;28;20025;-70
2023/08/28 04:00:23;;;;;;;7.00;6.30;;;;;;;13.79;100.00;101102.38;5279467;28;20071;-70
2023/08/28 04:02:54;;;;;;;9.00;6.68;;;;;;;13.80;100.00;101104.03;5282018;28;20115;-70
2023/08/28 04:05:26;;;;;;;9.20;6.57;;;;;;;13.82;100.00;101109.13;5282199;28;20090;-70
2023/08/28 04:07:57;;;;;;;8.60;6.45;;;;;;;13.85;100.00;101107.03;5283870;28;20036;-70
2023/08/28 04:10:29;;;;;;;7.68;6.22;;;;;;;13.91;100.00;101105.66;5281528;28;20107;-70
2023/08/28 04:13:00;;;;;;;6.95;6.13;;;;;;;13.95;100.00;101107.00;5288554;28;20048;-70
2023/08/28 04:15:31;;;;;;;9.45;6.93;;;;;;;13.99;100.00;101112.81;5281055;28;20028;-70
2023/08/28 04:18:04;;;;;;;8.13;7.07;;;;;;;14.03;100.00;101109.75;5281279;28;20611;-70
2023/08/28 04:20:35;;;;;;;8.60;7.18;;;;;;;14.07;100.00;101108.47;5278751;28;20101;-70
2023/08/28 04:23:07;;;;;;;8.77;6.90;;;;;;;14.06;100.00;101114.72;5281975;28;20667;-70
2023/08/28 04:25:38;;;;;;;8.15;7.05;;;;;;;14.08;100.00;101106.66;5282253;28;20027;-70
2023/08/28 04:28:10;;;;;;;8.05;7.25;;;;;;;14.14;100.00;101110.53;5284203;28;20035;-71
2023/08/28 04:30:42;;;;;;;9.00;8.10;;;;;;;14.10;100.00;101102.91;5279261;28;20028;-70
2023/08/28 04:33:14;;;;;;;7.70;6.93;;;;;;;14.12;100.00;101095.69;5282991;28;20093;-69
2023/08/28 04:35:45;;;;;;;9.37;7.43;;;;;;;14.22;100.00;101114.09;5284423;28;20063;-70
2023/08/28 04:38:16;;;;;;;7.95;7.15;;;;;;;14.25;100.00;101118.25;5284762;28;20361;-70
2023/08/28 04:40:48;;;;;;;8.32;7.53;;;;;;;14.27;100.00;101117.09;5280751;28;20465;-70
2023/08/28 04:43:19;;;;;;;9.38;7.28;;;;;;;14.31;100.00;101115.00;5284994;28;20024;-70
2023/08/28 04:45:51;;;;;;;8.80;7.90;;;;;;;14.31;100.00;101117.63;5280373;28;20538;-70
2023/08/28 04:48:22;;;;;;;8.07;7.25;;;;;;;14.32;100.00;101120.13;5282806;28;20374;-70
2023/08/28 04:50:53;;;;;;;8.38;7.25;;;;;;;14.35;100.00;101117.19;5277138;28;20508;-69
2023/08/28 04:53:24;;;;;;;8.23;7.40;;;;;;;14.34;100.00;101105.00;5282776;28;20028;-70
2023/08/28 04:55:56;;;;;;;7.53;6.82;;;;;;;14.39;100.00;101098.44;5278167;28;20028;-70
2023/08/28 04:58:27;;;;;;;8.38;6.82;;;;;;;14.42;100.00;101098.16;5280053;28;20390;-70
2023/08/28 05:00:58;;;;;;;7.78;6.97;;;;;;;14.46;100.00;101096.88;5279182;28;20046;-70
2023/08/28 05:03:29;;;;;;;8.48;7.03;;;;;;;14.48;100.00;101095.75;5276120;28;20028;-70
2023/08/28 05:06:01;;;;;;;8.38;7.53;;;;;;;14.50;100.00;101096.44;5278754;28;20151;-70
2023/08/28 05:08:32;;;;;;;7.75;6.95;;;;;;;14.55;100.00;101088.13;5276795;28;20025;-70
2023/08/28 05:11:04;;;;;;;7.80;7.00;;;;;;;14.56;100.00;101085.31;5268328;28;20051;-71
2023/08/28 05:13:35;;;;;;;7.30;6.60;;;;;;;14.59;100.00;101084.19;5274232;28;20066;-70
2023/08/28 05:16:07;;;;;;;8.25;7.45;;;;;;;14.63;100.00;101088.19;5278430;28;20552;-70
2023/08/28 05:18:38;;;;;;;9.13;6.75;;;;;;;14.68;100.00;101088.56;5287724;28;20489;-70
2023/08/28 05:21:10;;;;;;;9.15;6.80;;;;;;;14.70;100.00;101089.25;5270831;28;20773;-70
2023/08/28 05:23:41;;;;;;;7.75;6.95;;;;;;;14.72;100.00;101081.16;5267305;28;20024;-70
2023/08/28 05:26:12;;;;;;;7.85;6.72;;;;;;;14.75;100.00;101084.34;5259093;28;20047;-70
2023/08/28 05:28:45;;;;;;;9.07;7.13;;;;;;;14.80;100.00;101086.50;5279614;28;20032;-71
2023/08/28 05:31:16;;;;;;;7.32;6.63;;;;;;;14.86;100.00;101090.38;5278960;28;20488;-71
2023/08/28 05:33:47;;;;;;;7.35;6.65;;;;;;;14.90;100.00;101089.91;5269926;28;20116;-71
2023/08/28 05:36:18;;;;;;;7.68;6.60;;;;;;;14.89;100.00;101076.84;5274084;28;20031;-71
2023/08/28 05:38:50;;;;;;;8.25;7.45;;;;;;;14.90;100.00;101089.09;5278134;28;20020;-71
2023/08/28 05:41:21;;;;;;;7.80;7.10;;;;;;;14.91;100.00;101078.38;5277713;28;20024;-71
2023/08/28 05:43:52;;;;;;;8.15;7.43;;;;;;;14.93;100.00;101076.41;5276590;28;20028;-71
2023/08/28 05:46:23;;;;;;;8.05;7.25;;;;;;;14.94;100.00;101071.97;5257107;28;20032;-71
2023/08/28 05:48:55;;;;;;;8.70;7.15;;;;;;;14.98;100.00;101075.94;5278727;28;20500;-71
2023/08/28 05:51:26;;;;;;;8.43;7.10;;;;;;;15.00;100.00;101087.16;5273950;28;20520;-71
2023/08/28 05:53:57;;;;;;;8.65;7.53;;;;;;;14.98;100.00;101089.16;5276652;28;20396;-71
2023/08/28 05:56:28;;;;;;;8.23;7.43;;;;;;;14.99;100.00;101091.63;5277893;28;20580;-71
2023/08/28 05:59:00;;;;;;;8.15;7.15;;;;;;;15.00;100.00;101095.06;5277231;28;20512;-71
2023/08/28 06:01:31;;;;;;;7.78;6.97;;;;;;;14.97;100.00;101090.97;5271144;28;20054;-71
2023/08/28 06:04:03;;;;;;;8.48;7.70;;;;;;;14.98;100.00;101089.16;5273634;28;20042;-71
2023/08/28 06:06:37;;;;;;;8.50;7.22;;;;;;;15.03;100.00;101089.50;5275656;28;20024;-71
2023/08/28 06:09:09;;;;;;;8.82;7.93;;;;;;;15.01;100.00;101086.19;5271700;28;20494;-71
2023/08/28 06:11:42;;;;;;;8.90;7.40;;;;;;;15.04;100.00;101089.38;5269639;28;20949;-71
2023/08/28 06:14:13;;;;;;;8.18;7.38;;;;;;;15.08;100.00;101100.44;5271913;28;20029;-71
2023/08/28 06:16:45;;;;;;;8.20;7.50;;;;;;;15.08;100.00;101085.44;5276145;28;20073;-71
2023/08/28 06:19:16;;;;;;;10.80;8.50;;;;;;;15.09;100.00;101080.97;5276698;28;20028;-71
2023/08/28 06:21:48;;;;;;;9.77;7.72;;;;;;;15.15;100.00;101090.09;5281080;28;20024;-71
2023/08/28 06:24:19;;;;;;;9.90;8.60;;;;;;;15.21;100.00;101090.31;5270966;28;20020;-71
2023/08/28 06:26:52;;;;;;;8.77;7.90;;;;;;;15.28;100.00;101085.25;5278484;28;20229;-71
2023/08/28 06:29:23;;;;;;;9.75;8.05;;;;;;;15.33;100.00;101091.69;5275343;28;20027;-71
2023/08/28 06:31:55;;;;;;;9.55;8.55;;;;;;;15.40;100.00;101093.72;5273356;28;20033;-71
2023/08/28 06:34:26;;;;;;;11.00;8.30;;;;;;;15.51;100.00;101096.09;5270238;28;20043;-72
2023/08/28 06:36:57;;;;;;;10.48;9.20;;;;;;;15.61;100.00;101094.19;5275707;28;20055;-72
2023/08/28 06:39:28;;;;;;;11.18;9.05;;;;;;;15.72;100.00;101098.38;5273313;28;20386;-72
2023/08/28 06:42:00;;;;;;;11.18;8.73;;;;;;;15.84;100.00;101098.97;5275044;28;20028;-72
2023/08/28 06:44:31;;;;;;;10.02;8.90;;;;;;;15.95;100.00;101101.34;5275603;28;20029;-71
2023/08/28 06:47:02;;;;;;;9.70;8.77;;;;;;;16.12;100.00;101097.75;5273017;28;20292;-71
2023/08/28 06:49:34;;;;;;;10.60;9.57;;;;;;;16.26;100.00;101091.03;5271320;28;20067;-71
2023/08/28 06:52:06;;;;;;;10.73;8.90;;;;;;;16.41;100.00;101093.88;5271832;28;20055;-71
2023/08/28 06:54:37;;;;;;;8.67;7.93;;;;;;;16.55;100.00;101106.44;5274203;28;20036;-72
2023/08/28 06:57:08;;;;;;;11.02;8.50;;;;;;;16.58;100.00;101107.94;5276788;28;20085;-72
2023/08/28 06:59:40;;;;;;;8.80;7.97;;;;;;;16.61;100.00;101116.38;5271701;28;20552;-72
2023/08/28 07:02:11;;;;;;;9.02;8.13;;;;;;;16.69;100.00;101112.91;5267090;28;20024;-72
2023/08/28 07:04:43;;;;;;;8.85;7.97;;;;;;;16.70;100.00;101122.50;5276702;28;20498;-71
2023/08/28 07:07:20;;;;;;;8.90;8.07;;;;;;;16.81;100.00;101121.41;5282497;28;20286;-72
2023/08/28 07:09:51;;;;;;;8.55;7.75;;;;;;;16.73;100.00;101123.03;5279301;28;20549;-71
2023/08/28 07:12:22;;;;;;;8.90;7.93;;;;;;;16.78;100.00;101133.97;5276415;28;20024;-71
2023/08/28 07:15:29;;;;;;;8.35;7.57;;;;;;;17.23;100.00;101131.81;5268380;28;20451;-72
2023/08/28 07:18:00;;;;;;;8.15;7.22;;;;;;;16.96;100.00;101131.16;5236264;28;20046;-72
2023/08/28 07:20:32;;;;;;;9.38;8.32;;;;;;;17.12;100.00;101138.31;5270730;28;20361;-72
2023/08/28 07:23:03;;;;;;;9.45;8.45;;;;;;;17.27;100.00;101139.28;5267465;28;20020;-72
2023/08/28 07:25:35;;;;;;;9.63;7.93;;;;;;;17.44;100.00;101134.78;5270919;28;20489;-72
2023/08/28 07:28:07;;;;;;;7.97;7.22;;;;;;;17.58;100.00;101133.28;5255176;28;20024;-72
2023/08/28 07:30:40;;;;;;;9.13;7.05;;;;;;;17.86;100.00;101120.47;5273189;28;20032;-72
2023/08/28 07:33:12;;;;;;;;;;;;;;;18.60;100.00;101123.59;5279081;28;20028;-72
2023/08/28 07:35:44;;;;;;;8.55;7.43;;;;;;;18.34;100.00;101112.50;5270496;28;19916;-71
2023/08/28 07:38:16;;;;;;;10.93;7.15;;;;;;;18.51;100.00;101119.34;5269205;28;20024;-72
2023/08/28 07:40:48;;;;;;;7.90;7.07;;;;;;;18.54;100.00;101111.03;5273736;28;20497;-72
2023/08/28 07:43:20;;;;;;;8.48;6.38;;;;;;;18.70;100.00;101108.28;5275202;28;20465;-72
2023/08/28 07:45:51;;;;;;;7.00;5.95;;;;;;;18.88;100.00;101117.78;5271912;28;20035;-71
2023/08/28 07:48:23;;;;;;;6.50;5.75;;;;;;;19.00;100.00;101121.66;5271856;28;20112;-72
2023/08/28 07:50:54;;;;;;;6.93;6.25;;;;;;;19.09;100.00;101114.44;5273674;28;20150;-72
2023/08/28 07:53:26;;;;;;;9.55;6.38;;;;;;;19.15;100.00;101119.06;5274156;28;20036;-72
2023/08/28 07:55:57;;;;;;;6.30;5.60;;;;;;;19.13;100.00;101118.41;5271868;28;20389;-72
2023/08/28 07:58:29;;;;;;;7.03;6.32;;;;;;;19.19;100.00;101121.16;5269450;28;20424;-72
2023/08/28 08:01:00;;;;;;;8.30;6.07;;;;;;;19.22;100.00;101117.34;5274042;28;20016;-71
2023/08/28 08:03:31;;;;;;;7.15;6.45;;;;;;;19.24;100.00;101125.13;5272738;28;20058;-72
2023/08/28 08:06:03;;;;;;;6.72;5.82;;;;;;;19.30;100.00;101119.91;5268339;28;20028;-72
2023/08/28 08:08:34;;;;;;;9.57;6.03;;;;;;;19.41;100.00;101116.00;5274004;28;20393;-72
2023/08/28 08:11:05;;;;;;;6.43;5.80;;;;;;;19.37;100.00;101126.16;5270929;28;20060;-72
2023/08/28 08:13:37;;;;;;;6.40;5.80;;;;;;;19.44;100.00;101124.44;5276158;28;20028;-72
2023/08/28 08:16:08;;;;;;;6.73;5.73;;;;;;;19.51;100.00;101129.00;5269789;28;20028;-72
2023/08/28 08:18:39;;;;;;;7.23;5.47;;;;;;;19.48;100.00;101124.06;5280283;28;20119;-72
2023/08/28 08:21:11;;;;;;;5.88;5.28;;;;;;;19.45;100.00;101117.28;5272789;28;20028;-72
2023/08/28 08:23:42;;;;;;;6.15;4.70;;;;;;;19.50;100.00;101127.34;5267956;28;20142;-72
2023/08/28 08:26:13;;;;;;;5.90;5.03;;;;;;;19.46;100.00;101126.91;5279253;28;20341;-72
2023/08/28 08:28:45;;;;;;;6.18;4.75;;;;;;;19.51;100.00;101129.84;5273618;28;20028;-72
2023/08/28 08:31:16;;;;;;;5.13;4.53;;;;;;;19.58;100.00;101127.28;5273879;28;20145;-72
2023/08/28 08:33:47;;;;;;;8.00;5.22;;;;;;;19.49;100.00;101126.53;5274939;28;20561;-72
2023/08/28 08:36:18;;;;;;;5.78;5.28;;;;;;;19.52;100.00;101126.19;5280627;28;20476;-72
2023/08/28 08:38:50;;;;;;;6.47;5.70;;;;;;;19.61;100.00;101135.72;5278392;28;20050;-72
2023/08/28 08:41:21;;;;;;;6.93;5.97;;;;;;;19.62;100.00;101137.41;5274141;28;20021;-72
2023/08/28 08:43:52;;;;;;;7.30;5.43;;;;;;;19.69;100.00;101140.97;5276834;28;20031;-72
2023/08/28 08:46:25;;;;;;;5.93;5.18;;;;;;;19.78;100.00;101140.91;5278057;28;20520;-72
2023/08/28 08:48:59;;;;;;;6.00;4.85;;;;;;;19.90;100.00;101142.09;5271995;28;20463;-73
2023/08/28 08:51:32;;;;;;;5.20;4.47;;;;;;;19.96;100.00;101144.00;5273125;28;20079;-72
2023/08/28 08:54:12;;;;;;;6.80;4.07;;;;;;;19.98;100.00;101144.63;5271309;28;20040;-72
2023/08/28 08:56:44;;;;;;;5.03;3.78;;;;;;;19.98;100.00;101136.66;5277672;28;20042;-72
2023/08/28 08:59:16;;;;;;;7.20;4.17;;;;;;;20.01;100.00;101141.63;5273885;28;20032;-72
2023/08/28 09:01:48;;;;;;;6.53;3.60;;;;;;;20.18;100.00;101145.72;5276099;28;20443;-72
2023/08/28 09:04:21;;;;;;;5.83;4.17;;;;;;;20.24;100.00;101130.03;5272416;28;20036;-72
2023/08/28 09:06:52;;;;;;;5.45;3.17;;;;;;;20.28;100.00;101147.28;5279186;28;20063;-73
2023/08/28 09:09:24;;;;;;;5.20;3.60;;;;;;;20.50;100.00;101141.00;5274965;28;20525;-72
2023/08/28 09:11:55;;;;;;;3.60;3.00;;;;;;;20.58;100.00;101140.88;5273956;28;20154;-72
2023/08/28 09:14:28;;;;;;;4.30;3.07;;;;;;;20.65;100.00;101133.81;5274964;28;20055;-72
2023/08/28 09:16:59;;;;;;;3.72;3.25;;;;;;;20.71;100.00;101129.53;5276771;28;21126;-73
2023/08/28 09:19:30;;;;;;;4.40;2.80;;;;;;;20.73;100.00;101124.03;5274465;28;20047;-72
2023/08/28 09:22:03;;;;;;;4.87;3.13;;;;;;;20.71;100.00;101131.38;5268321;28;20102;-72
2023/08/28 09:24:36;;;;;;;4.50;2.75;;;;;;;20.93;100.00;101129.56;5271118;28;20097;-72
2023/08/28 09:27:12;;;;;;;4.32;2.50;;;;;;;20.92;100.00;101119.91;5273950;28;20039;-72
2023/08/28 09:29:44;;;;;;;3.53;2.63;;;;;;;20.87;100.00;101128.47;5276870;28;20414;-72
2023/08/28 09:32:15;;;;;;;7.17;2.13;;;;;;;20.98;100.00;101133.28;5274480;28;20158;-72
2023/08/28 09:34:46;;;;;;;4.63;2.33;;;;;;;20.90;100.00;101134.22;5277098;28;20043;-72
2023/08/28 09:37:19;;;;;;;4.23;2.60;;;;;;;20.82;100.00;101126.38;5278390;28;20400;-72
2023/08/28 09:39:54;;;;;;;;;;;;;;;21.67;100.00;101143.28;5275932;28;20058;-72
2023/08/28 09:42:26;;;;;;;2.83;2.22;;;;;;;20.96;100.00;101142.50;5275515;28;20488;-72
2023/08/28 09:44:57;;;;;;;3.80;2.60;;;;;;;20.95;100.00;101143.47;5274969;28;20024;-73
2023/08/28 09:47:28;;;;;;;3.43;2.23;;;;;;;21.08;100.00;101143.63;5273393;28;20028;-72
2023/08/28 09:49:59;;;;;;;4.13;2.80;;;;;;;21.24;100.00;101135.34;5272651;28;20044;-72
2023/08/28 09:52:31;;;;;;;2.93;2.50;;;;;;;21.40;100.00;101138.75;5279058;28;20032;-72
2023/08/28 09:55:07;;;;;;;4.70;2.83;;;;;;;21.62;100.00;101146.50;5272986;28;20490;-72
2023/08/28 09:57:42;;;;;;;2.85;2.55;;;;;;;21.85;100.00;101145.41;5275814;28;20333;-72
2023/08/28 10:00:14;;;;;;;3.30;2.17;;;;;;;21.47;100.00;101136.97;5271230;28;20032;-72
2023/08/28 10:02:45;;;;;;;3.87;2.23;;;;;;;21.81;100.00;101147.66;5277786;28;20056;-73
2023/08/28 10:05:19;;;;;;;3.50;2.30;;;;;;;21.79;100.00;101146.22;5277889;28;20150;-72
2023/08/28 10:07:55;;;;;;;4.20;2.45;;;;;;;21.74;100.00;101144.13;5276415;28;20516;-72
2023/08/28 10:10:27;;;;;;;4.22;2.42;;;;;;;21.84;100.00;101139.25;5282712;28;20024;-73
2023/08/28 10:13:02;;;;;;;2.73;2.00;;;;;;;22.22;100.00;101140.69;5271309;28;20059;-73
2023/08/28 10:15:39;;;;;;;2.15;1.35;;;;;;;22.56;100.00;101137.94;5277876;28;20028;-73
2023/08/28 10:18:21;;;;;;;2.20;1.73;;;;;;;22.67;100.00;101128.50;5270175;28;20036;-73
2023/08/28 10:20:53;;;;;;;3.90;1.92;;;;;;;22.61;100.00;101126.63;5269837;28;20032;-73
2023/08/28 10:23:26;;;;;;;3.13;1.80;;;;;;;22.70;100.00;101127.28;5276444;28;20442;-73
2023/08/28 10:26:00;;;;;;;2.85;2.10;;;;;;;22.69;100.00;101120.28;5269718;28;20508;-73
2023/08/28 10:28:32;;;;;;;2.97;1.80;;;;;;;22.76;100.00;101121.09;5277324;28;20036;-73
2023/08/28 10:31:05;;;;;;;2.90;1.60;;;;;;;22.85;100.00;101127.91;5274327;28;20032;-73
2023/08/28 10:33:37;;;;;;;1.63;0.93;;;;;;;23.00;98.29;101131.25;5273806;28;20418;-73
2023/08/28 10:36:09;;;;;;;1.70;0.80;;;;;;;23.04;100.00;101140.50;5276568;28;20029;-73
2023/08/28 10:38:42;;;;;;;3.08;1.40;;;;;;;22.96;99.53;101138.03;5270867;28;20389;-73
2023/08/28 10:41:14;;;;;;;2.22;1.42;;;;;;;22.83;100.00;101132.63;5272623;28;20456;-73
2023/08/28 10:43:48;;;;;;;2.60;1.98;;;;;;;22.99;100.00;101137.59;5270932;28;20024;-73
2023/08/28 10:46:20;;;;;;;3.53;1.85;;;;;;;22.72;100.00;101133.22;5273442;28;20522;-73
2023/08/28 10:49:05;;;;;;;3.05;2.28;;;;;;;22.81;100.00;101130.19;5272011;28;20088;-73
2023/08/28 10:51:36;;;;;;;4.47;2.00;;;;;;;22.51;100.00;101128.88;5267529;28;20035;-73
2023/08/28 10:54:11;;;;;;;4.90;2.10;;;;;;;22.69;100.00;101130.97;5275589;28;20028;-73
2023/08/28 10:56:53;;;;;;;3.38;2.53;;;;;;;22.58;100.00;101138.56;5268222;28;20031;-73
2023/08/28 10:59:26;;;;;;;3.67;2.42;;;;;;;22.32;100.00;101128.63;5276470;28;20085;-73
2023/08/28 11:01:58;;;;;;;3.33;2.15;;;;;;;22.34;100.00;101128.41;5277150;28;20608;-73
2023/08/28 11:04:35;;;;;;;3.50;2.40;;;;;;;22.47;100.00;101130.31;5272653;28;20060;-73
2023/08/28 11:07:22;;;;;;;3.70;2.20;;;;;;;22.67;100.00;101120.50;5274090;28;20028;-73
2023/08/28 11:10:26;;;;;;;3.67;2.28;;;;;;;23.07;100.00;101125.91;5250952;28;20032;-72
2023/08/28 11:13:02;;;;;;;2.78;1.75;;;;;;;23.04;100.00;101121.78;5226621;28;20048;-73
2023/08/28 11:15:38;;;;;;;2.40;1.65;;;;;;;23.11;100.00;101115.59;5272697;28;20029;-73
2023/08/28 11:18:18;;;;;;;3.20;1.73;;;;;;;23.37;100.00;101120.13;5273869;28;20046;-73
2023/08/28 11:20:55;;;;;;;4.03;2.20;;;;;;;23.31;99.29;101108.41;5274617;28;20032;-73
2023/08/28 11:23:35;;;;;;;4.47;2.50;;;;;;;22.96;99.78;101116.66;5274690;28;20268;-73
2023/08/28 11:26:26;;;;;;;5.45;1.90;;;;;;;23.35;100.00;101114.16;5268703;28;20430;-73
2023/08/28 11:28:57;;;;;;;2.42;1.88;;;;;;;22.85;97.19;101116.41;5269723;28;20557;-73
2023/08/28 11:31:33;;;;;;;3.13;2.23;;;;;;;22.82;100.00;101098.94;5266835;28;20032;-73
2023/08/28 11:34:12;;;;;;;2.60;2.20;;;;;;;22.93;100.00;101118.91;5270573;28;20025;-74
2023/08/28 11:36:45;;;;;;;2.85;2.25;;;;;;;22.56;100.00;101124.56;5270496;28;20028;-73
2023/08/28 11:39:23;;;;;;;4.43;2.10;;;;;;;22.80;100.00;101114.34;5268084;28;20385;-72
2023/08/28 11:41:54;;;;;;;3.38;2.55;;;;;;;22.49;99.70;101107.72;5269855;28;20040;-73